sensor_id;sensor_type;location;lat;lon;timestamp;P1;durP1;ratioP1;P2;durP2;ratioP2
29954;SDS011;68448;51.188;6.868;2023-03-23T00:02:13;2.37;;;2.17;;
29954;SDS011;68448;51.188;6.868;2023-03-23T00:04:39;1.90;;;1.70;;
29954;SDS011;68448;51.188;6.868;2023-03-23T00:07:06;2.40;;;1.97;;
29954;SDS011;68448;51.188;6.868;2023-03-23T00:09:33;2.93;;;2.33;;
29954;SDS011;68448;51.188;6.868;2023-03-23T00:11:59;2.00;;;1.80;;
29954;SDS011;68448;51.188;6.868;2023-03-23T00:14:26;2.77;;;1.80;;
29954;SDS011;68448;51.188;6.868;2023-03-23T00:16:52;3.00;;;2.03;;
29954;SDS011;68448;51.188;6.868;2023-03-23T00:19:18;5.97;;;1.87;;
29954;SDS011;68448;51.188;6.868;2023-03-23T00:21:44;3.50;;;2.03;;
29954;SDS011;68448;51.188;6.868;2023-03-23T00:24:11;4.60;;;1.93;;
29954;SDS011;68448;51.188;6.868;2023-03-23T00:26:39;2.10;;;1.70;;
29954;SDS011;68448;51.188;6.868;2023-03-23T00:29:06;2.30;;;2.10;;
29954;SDS011;68448;51.188;6.868;2023-03-23T00:31:32;3.83;;;2.40;;
29954;SDS011;68448;51.188;6.868;2023-03-23T00:33:59;3.60;;;2.10;;
29954;SDS011;68448;51.188;6.868;2023-03-23T00:36:25;2.73;;;2.20;;
29954;SDS011;68448;51.188;6.868;2023-03-23T00:38:51;2.80;;;1.80;;
29954;SDS011;68448;51.188;6.868;2023-03-23T00:41:19;2.50;;;1.93;;
29954;SDS011;68448;51.188;6.868;2023-03-23T00:43:48;2.37;;;2.17;;
29954;SDS011;68448;51.188;6.868;2023-03-23T00:46:14;2.90;;;2.07;;
29954;SDS011;68448;51.188;6.868;2023-03-23T00:48:40;3.20;;;2.10;;
29954;SDS011;68448;51.188;6.868;2023-03-23T00:51:06;3.03;;;1.97;;
29954;SDS011;68448;51.188;6.868;2023-03-23T00:53:32;3.57;;;2.20;;
29954;SDS011;68448;51.188;6.868;2023-03-23T00:55:59;3.37;;;2.47;;
29954;SDS011;68448;51.188;6.868;2023-03-23T00:58:25;2.30;;;2.10;;
29954;SDS011;68448;51.188;6.868;2023-03-23T01:00:52;3.27;;;1.87;;
29954;SDS011;68448;51.188;6.868;2023-03-23T01:03:18;3.73;;;2.27;;
29954;SDS011;68448;51.188;6.868;2023-03-23T01:05:45;2.53;;;2.30;;
29954;SDS011;68448;51.188;6.868;2023-03-23T01:08:13;3.60;;;2.83;;
29954;SDS011;68448;51.188;6.868;2023-03-23T01:10:39;2.60;;;2.27;;
29954;SDS011;68448;51.188;6.868;2023-03-23T01:13:05;4.50;;;2.30;;
29954;SDS011;68448;51.188;6.868;2023-03-23T01:15:32;2.47;;;1.80;;
29954;SDS011;68448;51.188;6.868;2023-03-23T01:17:59;3.50;;;2.23;;
29954;SDS011;68448;51.188;6.868;2023-03-23T01:20:25;3.47;;;2.10;;
29954;SDS011;68448;51.188;6.868;2023-03-23T01:22:52;3.20;;;2.43;;
29954;SDS011;68448;51.188;6.868;2023-03-23T01:25:18;3.70;;;2.40;;
29954;SDS011;68448;51.188;6.868;2023-03-23T01:27:44;2.80;;;2.23;;
29954;SDS011;68448;51.188;6.868;2023-03-23T01:30:11;4.07;;;2.23;;
29954;SDS011;68448;51.188;6.868;2023-03-23T01:32:37;5.40;;;2.67;;
29954;SDS011;68448;51.188;6.868;2023-03-23T01:35:05;2.23;;;1.77;;
29954;SDS011;68448;51.188;6.868;2023-03-23T01:37:31;4.00;;;2.80;;
29954;SDS011;68448;51.188;6.868;2023-03-23T01:39:58;2.77;;;2.30;;
29954;SDS011;68448;51.188;6.868;2023-03-23T01:42:25;3.20;;;2.27;;
29954;SDS011;68448;51.188;6.868;2023-03-23T01:47:52;4.10;;;2.60;;
29954;SDS011;68448;51.188;6.868;2023-03-23T01:50:21;4.87;;;2.70;;
29954;SDS011;68448;51.188;6.868;2023-03-23T01:52:49;4.67;;;3.03;;
29954;SDS011;68448;51.188;6.868;2023-03-23T01:55:16;5.20;;;2.90;;
29954;SDS011;68448;51.188;6.868;2023-03-23T01:57:43;4.27;;;3.10;;
29954;SDS011;68448;51.188;6.868;2023-03-23T02:00:09;8.27;;;3.40;;
29954;SDS011;68448;51.188;6.868;2023-03-23T02:02:50;8.20;;;3.70;;
29954;SDS011;68448;51.188;6.868;2023-03-23T02:05:20;3.53;;;3.03;;
29954;SDS011;68448;51.188;6.868;2023-03-23T02:07:49;6.27;;;3.63;;
29954;SDS011;68448;51.188;6.868;2023-03-23T02:10:16;4.03;;;3.23;;
29954;SDS011;68448;51.188;6.868;2023-03-23T02:12:42;4.73;;;3.20;;
29954;SDS011;68448;51.188;6.868;2023-03-23T02:15:10;4.23;;;2.93;;
29954;SDS011;68448;51.188;6.868;2023-03-23T02:17:41;4.10;;;3.30;;
29954;SDS011;68448;51.188;6.868;2023-03-23T02:20:13;4.07;;;3.40;;
29954;SDS011;68448;51.188;6.868;2023-03-23T02:25:35;6.60;;;3.07;;
29954;SDS011;68448;51.188;6.868;2023-03-23T02:28:15;6.43;;;3.03;;
29954;SDS011;68448;51.188;6.868;2023-03-23T02:30:45;4.80;;;3.97;;
29954;SDS011;68448;51.188;6.868;2023-03-23T02:33:29;5.40;;;3.33;;
29954;SDS011;68448;51.188;6.868;2023-03-23T02:35:59;4.47;;;3.70;;
29954;SDS011;68448;51.188;6.868;2023-03-23T02:38:28;4.13;;;2.77;;
29954;SDS011;68448;51.188;6.868;2023-03-23T02:40:56;4.63;;;3.73;;
29954;SDS011;68448;51.188;6.868;2023-03-23T02:43:25;4.10;;;3.70;;
29954;SDS011;68448;51.188;6.868;2023-03-23T02:45:52;3.70;;;3.33;;
29954;SDS011;68448;51.188;6.868;2023-03-23T02:48:19;3.90;;;3.50;;
29954;SDS011;68448;51.188;6.868;2023-03-23T02:50:51;7.00;;;3.63;;
29954;SDS011;68448;51.188;6.868;2023-03-23T02:53:18;6.13;;;3.53;;
29954;SDS011;68448;51.188;6.868;2023-03-23T02:55:46;5.73;;;3.40;;
29954;SDS011;68448;51.188;6.868;2023-03-23T02:58:16;3.53;;;2.80;;
29954;SDS011;68448;51.188;6.868;2023-03-23T03:00:43;8.80;;;3.50;;
29954;SDS011;68448;51.188;6.868;2023-03-23T03:03:11;5.33;;;3.27;;
29954;SDS011;68448;51.188;6.868;2023-03-23T03:05:38;5.60;;;3.73;;
29954;SDS011;68448;51.188;6.868;2023-03-23T03:08:13;3.50;;;3.10;;
29954;SDS011;68448;51.188;6.868;2023-03-23T03:10:42;4.00;;;3.07;;
29954;SDS011;68448;51.188;6.868;2023-03-23T03:13:11;4.67;;;3.47;;
29954;SDS011;68448;51.188;6.868;2023-03-23T03:15:40;4.63;;;3.17;;
29954;SDS011;68448;51.188;6.868;2023-03-23T03:18:09;4.10;;;2.93;;
29954;SDS011;68448;51.188;6.868;2023-03-23T03:20:38;5.13;;;3.57;;
29954;SDS011;68448;51.188;6.868;2023-03-23T03:23:06;5.73;;;3.47;;
29954;SDS011;68448;51.188;6.868;2023-03-23T03:25:35;7.10;;;3.30;;
29954;SDS011;68448;51.188;6.868;2023-03-23T03:28:01;4.60;;;3.40;;
29954;SDS011;68448;51.188;6.868;2023-03-23T03:30:38;3.37;;;3.07;;
29954;SDS011;68448;51.188;6.868;2023-03-23T03:33:05;4.53;;;3.30;;
29954;SDS011;68448;51.188;6.868;2023-03-23T03:35:31;3.63;;;2.63;;
29954;SDS011;68448;51.188;6.868;2023-03-23T03:38:04;4.60;;;3.03;;
29954;SDS011;68448;51.188;6.868;2023-03-23T03:40:30;4.10;;;3.70;;
29954;SDS011;68448;51.188;6.868;2023-03-23T03:42:58;3.33;;;2.93;;
29954;SDS011;68448;51.188;6.868;2023-03-23T03:45:25;4.63;;;2.70;;
29954;SDS011;68448;51.188;6.868;2023-03-23T03:47:51;4.10;;;2.93;;
29954;SDS011;68448;51.188;6.868;2023-03-23T03:50:17;3.60;;;3.10;;
29954;SDS011;68448;51.188;6.868;2023-03-23T03:52:43;4.90;;;3.20;;
29954;SDS011;68448;51.188;6.868;2023-03-23T03:55:10;3.03;;;2.80;;
29954;SDS011;68448;51.188;6.868;2023-03-23T03:57:39;2.80;;;2.50;;
29954;SDS011;68448;51.188;6.868;2023-03-23T04:00:21;3.40;;;2.27;;
29954;SDS011;68448;51.188;6.868;2023-03-23T04:02:48;3.00;;;2.20;;
29954;SDS011;68448;51.188;6.868;2023-03-23T04:05:16;3.70;;;2.33;;
29954;SDS011;68448;51.188;6.868;2023-03-23T04:07:44;2.43;;;2.23;;
29954;SDS011;68448;51.188;6.868;2023-03-23T04:10:10;2.50;;;2.13;;
29954;SDS011;68448;51.188;6.868;2023-03-23T04:12:37;3.07;;;2.73;;
29954;SDS011;68448;51.188;6.868;2023-03-23T04:15:23;6.00;;;2.50;;
29954;SDS011;68448;51.188;6.868;2023-03-23T04:17:50;3.07;;;2.47;;
29954;SDS011;68448;51.188;6.868;2023-03-23T04:20:16;2.97;;;2.37;;
29954;SDS011;68448;51.188;6.868;2023-03-23T04:22:45;5.40;;;2.40;;
29954;SDS011;68448;51.188;6.868;2023-03-23T04:25:12;2.20;;;2.00;;
29954;SDS011;68448;51.188;6.868;2023-03-23T04:27:40;5.87;;;2.40;;
29954;SDS011;68448;51.188;6.868;2023-03-23T04:30:07;2.83;;;2.43;;
29954;SDS011;68448;51.188;6.868;2023-03-23T04:32:44;2.83;;;2.50;;
29954;SDS011;68448;51.188;6.868;2023-03-23T04:35:16;4.10;;;2.50;;
29954;SDS011;68448;51.188;6.868;2023-03-23T04:37:48;2.53;;;2.33;;
29954;SDS011;68448;51.188;6.868;2023-03-23T04:40:17;4.53;;;2.40;;
29954;SDS011;68448;51.188;6.868;2023-03-23T04:42:52;2.93;;;2.33;;
29954;SDS011;68448;51.188;6.868;2023-03-23T04:45:30;3.93;;;2.40;;
29954;SDS011;68448;51.188;6.868;2023-03-23T04:48:01;5.37;;;2.50;;
29954;SDS011;68448;51.188;6.868;2023-03-23T04:50:35;2.63;;;2.40;;
29954;SDS011;68448;51.188;6.868;2023-03-23T04:53:12;5.30;;;1.90;;
29954;SDS011;68448;51.188;6.868;2023-03-23T04:55:40;2.40;;;2.20;;
29954;SDS011;68448;51.188;6.868;2023-03-23T04:58:09;2.50;;;2.30;;
29954;SDS011;68448;51.188;6.868;2023-03-23T05:00:56;2.00;;;1.80;;
29954;SDS011;68448;51.188;6.868;2023-03-23T05:03:26;3.50;;;2.50;;
29954;SDS011;68448;51.188;6.868;2023-03-23T05:05:55;2.70;;;2.40;;
29954;SDS011;68448;51.188;6.868;2023-03-23T05:08:21;4.37;;;2.17;;
29954;SDS011;68448;51.188;6.868;2023-03-23T05:10:50;2.90;;;2.27;;
29954;SDS011;68448;51.188;6.868;2023-03-23T05:13:16;3.43;;;2.30;;
29954;SDS011;68448;51.188;6.868;2023-03-23T05:15:47;2.60;;;2.40;;
29954;SDS011;68448;51.188;6.868;2023-03-23T05:18:13;4.03;;;2.80;;
29954;SDS011;68448;51.188;6.868;2023-03-23T05:20:42;3.00;;;2.13;;
29954;SDS011;68448;51.188;6.868;2023-03-23T05:23:14;2.63;;;2.37;;
29954;SDS011;68448;51.188;6.868;2023-03-23T05:25:41;2.73;;;2.33;;
29954;SDS011;68448;51.188;6.868;2023-03-23T05:28:13;3.27;;;2.20;;
29954;SDS011;68448;51.188;6.868;2023-03-23T05:30:52;2.30;;;2.10;;
29954;SDS011;68448;51.188;6.868;2023-03-23T05:33:19;2.50;;;2.20;;
29954;SDS011;68448;51.188;6.868;2023-03-23T05:36:06;2.63;;;1.97;;
29954;SDS011;68448;51.188;6.868;2023-03-23T05:38:48;2.30;;;2.10;;
29954;SDS011;68448;51.188;6.868;2023-03-23T05:41:16;3.40;;;2.10;;
29954;SDS011;68448;51.188;6.868;2023-03-23T05:43:42;2.90;;;2.40;;
29954;SDS011;68448;51.188;6.868;2023-03-23T05:46:22;2.60;;;2.40;;
29954;SDS011;68448;51.188;6.868;2023-03-23T05:48:49;3.70;;;2.10;;
29954;SDS011;68448;51.188;6.868;2023-03-23T05:51:20;3.50;;;2.47;;
29954;SDS011;68448;51.188;6.868;2023-03-23T05:53:47;3.53;;;2.53;;
29954;SDS011;68448;51.188;6.868;2023-03-23T05:56:15;6.70;;;3.20;;
29954;SDS011;68448;51.188;6.868;2023-03-23T05:59:10;7.37;;;2.70;;
29954;SDS011;68448;51.188;6.868;2023-03-23T06:01:38;3.70;;;2.50;;
29954;SDS011;68448;51.188;6.868;2023-03-23T06:04:04;5.23;;;2.20;;
29954;SDS011;68448;51.188;6.868;2023-03-23T06:06:44;3.50;;;2.73;;
29954;SDS011;68448;51.188;6.868;2023-03-23T06:09:10;2.53;;;2.33;;
29954;SDS011;68448;51.188;6.868;2023-03-23T06:11:48;2.43;;;2.23;;
29954;SDS011;68448;51.188;6.868;2023-03-23T06:14:32;7.47;;;2.70;;
29954;SDS011;68448;51.188;6.868;2023-03-23T06:16:59;3.97;;;2.50;;
29954;SDS011;68448;51.188;6.868;2023-03-23T06:19:25;6.53;;;2.43;;
29954;SDS011;68448;51.188;6.868;2023-03-23T06:22:03;2.60;;;2.27;;
29954;SDS011;68448;51.188;6.868;2023-03-23T06:24:48;3.90;;;2.73;;
29954;SDS011;68448;51.188;6.868;2023-03-23T06:27:19;5.67;;;2.30;;
29954;SDS011;68448;51.188;6.868;2023-03-23T06:29:45;4.13;;;2.00;;
29954;SDS011;68448;51.188;6.868;2023-03-23T06:32:12;4.13;;;2.27;;
29954;SDS011;68448;51.188;6.868;2023-03-23T06:34:40;3.67;;;3.27;;
29954;SDS011;68448;51.188;6.868;2023-03-23T06:37:43;8.93;;;2.50;;
29954;SDS011;68448;51.188;6.868;2023-03-23T06:40:21;2.23;;;1.73;;
29954;SDS011;68448;51.188;6.868;2023-03-23T06:42:53;6.60;;;2.70;;
29954;SDS011;68448;51.188;6.868;2023-03-23T06:45:40;5.23;;;2.37;;
29954;SDS011;68448;51.188;6.868;2023-03-23T06:48:35;4.50;;;2.00;;
29954;SDS011;68448;51.188;6.868;2023-03-23T06:51:01;3.40;;;2.30;;
29954;SDS011;68448;51.188;6.868;2023-03-23T06:53:29;7.60;;;2.17;;
29954;SDS011;68448;51.188;6.868;2023-03-23T06:55:57;4.27;;;2.33;;
29954;SDS011;68448;51.188;6.868;2023-03-23T06:58:23;6.03;;;2.40;;
29954;SDS011;68448;51.188;6.868;2023-03-23T07:00:52;2.60;;;1.97;;
29954;SDS011;68448;51.188;6.868;2023-03-23T07:03:19;2.50;;;1.80;;
29954;SDS011;68448;51.188;6.868;2023-03-23T07:05:45;4.00;;;1.93;;
29954;SDS011;68448;51.188;6.868;2023-03-23T07:08:12;3.23;;;1.93;;
29954;SDS011;68448;51.188;6.868;2023-03-23T07:10:52;4.30;;;2.63;;
29954;SDS011;68448;51.188;6.868;2023-03-23T07:13:22;6.60;;;2.17;;
29954;SDS011;68448;51.188;6.868;2023-03-23T07:15:54;4.67;;;1.80;;
29954;SDS011;68448;51.188;6.868;2023-03-23T07:18:21;9.73;;;2.20;;
29954;SDS011;68448;51.188;6.868;2023-03-23T07:20:48;5.70;;;1.87;;
29954;SDS011;68448;51.188;6.868;2023-03-23T07:23:15;3.30;;;1.60;;
29954;SDS011;68448;51.188;6.868;2023-03-23T07:26:00;2.63;;;1.90;;
29954;SDS011;68448;51.188;6.868;2023-03-23T07:28:34;4.37;;;2.07;;
29954;SDS011;68448;51.188;6.868;2023-03-23T07:31:07;5.90;;;1.83;;
29954;SDS011;68448;51.188;6.868;2023-03-23T07:33:33;3.27;;;1.93;;
29954;SDS011;68448;51.188;6.868;2023-03-23T07:35:59;4.20;;;1.80;;
29954;SDS011;68448;51.188;6.868;2023-03-23T07:38:26;7.73;;;2.60;;
29954;SDS011;68448;51.188;6.868;2023-03-23T07:40:52;2.87;;;2.17;;
29954;SDS011;68448;51.188;6.868;2023-03-23T07:43:20;6.80;;;1.90;;
29954;SDS011;68448;51.188;6.868;2023-03-23T07:46:07;4.67;;;1.40;;
29954;SDS011;68448;51.188;6.868;2023-03-23T07:48:54;3.73;;;1.50;;
29954;SDS011;68448;51.188;6.868;2023-03-23T07:51:23;5.63;;;2.50;;
29954;SDS011;68448;51.188;6.868;2023-03-23T07:53:50;3.90;;;1.63;;
29954;SDS011;68448;51.188;6.868;2023-03-23T07:56:42;3.77;;;2.10;;
29954;SDS011;68448;51.188;6.868;2023-03-23T07:59:21;2.70;;;2.43;;
29954;SDS011;68448;51.188;6.868;2023-03-23T08:01:48;2.10;;;1.90;;
29954;SDS011;68448;51.188;6.868;2023-03-23T08:04:40;5.90;;;2.27;;
29954;SDS011;68448;51.188;6.868;2023-03-23T08:07:45;4.23;;;2.23;;
29954;SDS011;68448;51.188;6.868;2023-03-23T08:10:38;2.10;;;1.53;;
29954;SDS011;68448;51.188;6.868;2023-03-23T08:13:23;5.63;;;1.70;;
29954;SDS011;68448;51.188;6.868;2023-03-23T08:16:26;5.47;;;1.87;;
29954;SDS011;68448;51.188;6.868;2023-03-23T08:19:10;8.27;;;2.00;;
29954;SDS011;68448;51.188;6.868;2023-03-23T08:21:55;4.80;;;1.67;;
29954;SDS011;68448;51.188;6.868;2023-03-23T08:24:38;4.47;;;1.93;;
29954;SDS011;68448;51.188;6.868;2023-03-23T08:27:24;2.20;;;1.70;;
29954;SDS011;68448;51.188;6.868;2023-03-23T08:30:20;6.30;;;1.90;;
29954;SDS011;68448;51.188;6.868;2023-03-23T08:33:04;6.00;;;1.77;;
29954;SDS011;68448;51.188;6.868;2023-03-23T08:35:59;3.63;;;1.90;;
29954;SDS011;68448;51.188;6.868;2023-03-23T08:38:38;5.60;;;1.60;;
29954;SDS011;68448;51.188;6.868;2023-03-23T08:41:20;4.70;;;1.77;;
29954;SDS011;68448;51.188;6.868;2023-03-23T08:43:52;6.90;;;1.77;;
29954;SDS011;68448;51.188;6.868;2023-03-23T08:46:46;4.50;;;1.83;;
29954;SDS011;68448;51.188;6.868;2023-03-23T08:49:17;3.20;;;1.73;;
29954;SDS011;68448;51.188;6.868;2023-03-23T08:51:58;3.93;;;1.90;;
29954;SDS011;68448;51.188;6.868;2023-03-23T08:54:36;4.97;;;1.73;;
29954;SDS011;68448;51.188;6.868;2023-03-23T08:57:31;6.73;;;2.60;;
29954;SDS011;68448;51.188;6.868;2023-03-23T09:00:22;5.90;;;2.10;;
29954;SDS011;68448;51.188;6.868;2023-03-23T09:03:08;3.80;;;1.67;;
29954;SDS011;68448;51.188;6.868;2023-03-23T09:05:57;4.87;;;1.97;;
29954;SDS011;68448;51.188;6.868;2023-03-23T09:08:27;3.67;;;1.90;;
29954;SDS011;68448;51.188;6.868;2023-03-23T09:10:53;4.13;;;2.10;;
29954;SDS011;68448;51.188;6.868;2023-03-23T09:13:19;3.87;;;1.87;;
29954;SDS011;68448;51.188;6.868;2023-03-23T09:15:45;5.70;;;2.10;;
29954;SDS011;68448;51.188;6.868;2023-03-23T09:18:11;3.13;;;1.80;;
29954;SDS011;68448;51.188;6.868;2023-03-23T09:20:38;5.30;;;1.90;;
29954;SDS011;68448;51.188;6.868;2023-03-23T09:23:05;8.30;;;2.00;;
29954;SDS011;68448;51.188;6.868;2023-03-23T09:25:31;4.23;;;1.87;;
29954;SDS011;68448;51.188;6.868;2023-03-23T09:27:58;5.13;;;1.90;;
29954;SDS011;68448;51.188;6.868;2023-03-23T09:30:25;2.73;;;1.80;;
29954;SDS011;68448;51.188;6.868;2023-03-23T09:32:51;20.30;;;3.83;;
29954;SDS011;68448;51.188;6.868;2023-03-23T09:35:17;4.70;;;2.03;;
29954;SDS011;68448;51.188;6.868;2023-03-23T09:37:43;5.97;;;2.00;;
29954;SDS011;68448;51.188;6.868;2023-03-23T09:40:13;6.20;;;2.10;;
29954;SDS011;68448;51.188;6.868;2023-03-23T09:42:43;5.80;;;2.70;;
29954;SDS011;68448;51.188;6.868;2023-03-23T09:45:15;4.13;;;2.40;;
29954;SDS011;68448;51.188;6.868;2023-03-23T09:47:46;8.80;;;1.97;;
29954;SDS011;68448;51.188;6.868;2023-03-23T09:50:16;2.07;;;1.73;;
29954;SDS011;68448;51.188;6.868;2023-03-23T09:52:44;4.87;;;2.27;;
29954;SDS011;68448;51.188;6.868;2023-03-23T09:55:14;8.90;;;2.33;;
29954;SDS011;68448;51.188;6.868;2023-03-23T09:57:43;6.60;;;2.43;;
29954;SDS011;68448;51.188;6.868;2023-03-23T10:00:12;5.17;;;2.57;;
29954;SDS011;68448;51.188;6.868;2023-03-23T10:02:41;4.93;;;2.00;;
29954;SDS011;68448;51.188;6.868;2023-03-23T10:05:15;1.93;;;1.43;;
29954;SDS011;68448;51.188;6.868;2023-03-23T10:07:42;4.60;;;2.23;;
29954;SDS011;68448;51.188;6.868;2023-03-23T10:10:14;6.90;;;2.00;;
29954;SDS011;68448;51.188;6.868;2023-03-23T10:12:42;4.93;;;1.70;;
29954;SDS011;68448;51.188;6.868;2023-03-23T10:15:10;5.83;;;1.70;;
29954;SDS011;68448;51.188;6.868;2023-03-23T10:17:39;7.73;;;2.33;;
29954;SDS011;68448;51.188;6.868;2023-03-23T10:20:15;6.50;;;2.07;;
29954;SDS011;68448;51.188;6.868;2023-03-23T10:22:45;3.00;;;1.23;;
29954;SDS011;68448;51.188;6.868;2023-03-23T10:25:16;2.10;;;0.90;;
29954;SDS011;68448;51.188;6.868;2023-03-23T10:27:45;2.73;;;1.10;;
29954;SDS011;68448;51.188;6.868;2023-03-23T10:30:14;2.90;;;1.30;;
29954;SDS011;68448;51.188;6.868;2023-03-23T10:32:42;3.67;;;1.20;;
29954;SDS011;68448;51.188;6.868;2023-03-23T10:35:11;2.07;;;1.43;;
29954;SDS011;68448;51.188;6.868;2023-03-23T10:37:38;1.30;;;1.03;;
29954;SDS011;68448;51.188;6.868;2023-03-23T10:40:11;3.63;;;1.77;;
29954;SDS011;68448;51.188;6.868;2023-03-23T10:42:40;2.73;;;1.40;;
29954;SDS011;68448;51.188;6.868;2023-03-23T10:45:11;5.60;;;1.50;;
29954;SDS011;68448;51.188;6.868;2023-03-23T10:47:38;4.93;;;1.20;;
29954;SDS011;68448;51.188;6.868;2023-03-23T10:50:06;1.20;;;1.10;;
29954;SDS011;68448;51.188;6.868;2023-03-23T10:52:38;2.70;;;1.70;;
29954;SDS011;68448;51.188;6.868;2023-03-23T10:55:07;3.17;;;1.63;;
29954;SDS011;68448;51.188;6.868;2023-03-23T10:57:34;4.30;;;1.90;;
29954;SDS011;68448;51.188;6.868;2023-03-23T11:00:03;4.90;;;1.83;;
29954;SDS011;68448;51.188;6.868;2023-03-23T11:02:29;6.23;;;1.97;;
29954;SDS011;68448;51.188;6.868;2023-03-23T11:05:00;2.77;;;1.67;;
29954;SDS011;68448;51.188;6.868;2023-03-23T11:07:27;4.00;;;2.20;;
29954;SDS011;68448;51.188;6.868;2023-03-23T11:09:54;3.37;;;1.87;;
29954;SDS011;68448;51.188;6.868;2023-03-23T11:12:20;9.00;;;2.23;;
29954;SDS011;68448;51.188;6.868;2023-03-23T11:14:46;7.40;;;2.50;;
29954;SDS011;68448;51.188;6.868;2023-03-23T11:17:21;6.07;;;2.70;;
29954;SDS011;68448;51.188;6.868;2023-03-23T11:19:48;5.83;;;2.43;;
29954;SDS011;68448;51.188;6.868;2023-03-23T11:22:16;7.50;;;3.30;;
29954;SDS011;68448;51.188;6.868;2023-03-23T11:24:43;1.70;;;1.60;;
29954;SDS011;68448;51.188;6.868;2023-03-23T11:27:10;5.57;;;2.40;;
29954;SDS011;68448;51.188;6.868;2023-03-23T11:29:47;6.77;;;2.50;;
29954;SDS011;68448;51.188;6.868;2023-03-23T11:32:14;3.77;;;2.37;;
29954;SDS011;68448;51.188;6.868;2023-03-23T11:34:42;6.73;;;2.13;;
29954;SDS011;68448;51.188;6.868;2023-03-23T11:37:10;2.47;;;2.27;;
29954;SDS011;68448;51.188;6.868;2023-03-23T11:39:45;3.90;;;2.67;;
29954;SDS011;68448;51.188;6.868;2023-03-23T11:42:13;6.30;;;3.97;;
29954;SDS011;68448;51.188;6.868;2023-03-23T11:44:43;6.37;;;2.80;;
29954;SDS011;68448;51.188;6.868;2023-03-23T11:47:11;7.23;;;2.60;;
29954;SDS011;68448;51.188;6.868;2023-03-23T11:49:43;4.07;;;2.10;;
29954;SDS011;68448;51.188;6.868;2023-03-23T11:52:12;9.57;;;7.00;;
29954;SDS011;68448;51.188;6.868;2023-03-23T11:54:40;5.50;;;3.73;;
29954;SDS011;68448;51.188;6.868;2023-03-23T11:57:09;3.87;;;3.03;;
29954;SDS011;68448;51.188;6.868;2023-03-23T11:59:35;8.20;;;3.80;;
29954;SDS011;68448;51.188;6.868;2023-03-23T12:02:06;4.53;;;3.03;;
29954;SDS011;68448;51.188;6.868;2023-03-23T12:04:47;9.50;;;3.80;;
29954;SDS011;68448;51.188;6.868;2023-03-23T12:07:21;6.63;;;4.40;;
29954;SDS011;68448;51.188;6.868;2023-03-23T12:09:51;9.93;;;3.50;;
29954;SDS011;68448;51.188;6.868;2023-03-23T12:12:21;8.33;;;3.63;;
29954;SDS011;68448;51.188;6.868;2023-03-23T12:14:53;4.20;;;3.73;;
29954;SDS011;68448;51.188;6.868;2023-03-23T12:17:24;6.80;;;3.67;;
29954;SDS011;68448;51.188;6.868;2023-03-23T12:19:58;5.70;;;4.23;;
29954;SDS011;68448;51.188;6.868;2023-03-23T12:22:31;3.43;;;3.10;;
29954;SDS011;68448;51.188;6.868;2023-03-23T12:25:02;6.93;;;3.40;;
29954;SDS011;68448;51.188;6.868;2023-03-23T12:27:33;5.23;;;4.00;;
29954;SDS011;68448;51.188;6.868;2023-03-23T12:32:54;5.30;;;3.27;;
29954;SDS011;68448;51.188;6.868;2023-03-23T12:35:33;6.37;;;2.93;;
29954;SDS011;68448;51.188;6.868;2023-03-23T12:38:06;12.10;;;4.57;;
29954;SDS011;68448;51.188;6.868;2023-03-23T12:40:40;6.30;;;3.47;;
29954;SDS011;68448;51.188;6.868;2023-03-23T12:43:11;4.00;;;2.63;;
29954;SDS011;68448;51.188;6.868;2023-03-23T12:45:43;3.87;;;2.87;;
29954;SDS011;68448;51.188;6.868;2023-03-23T12:48:13;4.03;;;3.03;;
29954;SDS011;68448;51.188;6.868;2023-03-23T12:50:42;5.40;;;3.20;;
29954;SDS011;68448;51.188;6.868;2023-03-23T12:53:10;4.60;;;2.97;;
29954;SDS011;68448;51.188;6.868;2023-03-23T12:55:38;8.40;;;3.53;;
29954;SDS011;68448;51.188;6.868;2023-03-23T12:58:05;5.43;;;3.80;;
29954;SDS011;68448;51.188;6.868;2023-03-23T13:00:33;6.00;;;3.90;;
29954;SDS011;68448;51.188;6.868;2023-03-23T13:03:01;8.03;;;3.10;;
29954;SDS011;68448;51.188;6.868;2023-03-23T13:05:36;6.10;;;3.60;;
29954;SDS011;68448;51.188;6.868;2023-03-23T13:08:09;6.93;;;3.13;;
29954;SDS011;68448;51.188;6.868;2023-03-23T13:10:38;6.87;;;4.50;;
29954;SDS011;68448;51.188;6.868;2023-03-23T13:13:06;3.23;;;2.87;;
29954;SDS011;68448;51.188;6.868;2023-03-23T13:15:37;4.80;;;2.97;;
29954;SDS011;68448;51.188;6.868;2023-03-23T13:18:08;3.83;;;3.27;;
29954;SDS011;68448;51.188;6.868;2023-03-23T13:20:39;4.90;;;3.40;;
29954;SDS011;68448;51.188;6.868;2023-03-23T13:23:10;7.47;;;4.03;;
29954;SDS011;68448;51.188;6.868;2023-03-23T13:25:40;5.77;;;4.60;;
29954;SDS011;68448;51.188;6.868;2023-03-23T13:28:12;6.97;;;3.90;;
29954;SDS011;68448;51.188;6.868;2023-03-23T13:30:39;11.90;;;4.83;;
29954;SDS011;68448;51.188;6.868;2023-03-23T13:33:06;9.10;;;4.23;;
29954;SDS011;68448;51.188;6.868;2023-03-23T13:35:33;6.77;;;4.13;;
29954;SDS011;68448;51.188;6.868;2023-03-23T13:38:00;9.00;;;4.67;;
29954;SDS011;68448;51.188;6.868;2023-03-23T13:40:28;9.40;;;4.30;;
29954;SDS011;68448;51.188;6.868;2023-03-23T13:42:55;6.53;;;4.60;;
29954;SDS011;68448;51.188;6.868;2023-03-23T13:45:22;11.43;;;5.73;;
29954;SDS011;68448;51.188;6.868;2023-03-23T13:47:49;7.77;;;5.20;;
29954;SDS011;68448;51.188;6.868;2023-03-23T13:50:24;11.40;;;5.80;;
29954;SDS011;68448;51.188;6.868;2023-03-23T13:52:52;10.90;;;7.20;;
29954;SDS011;68448;51.188;6.868;2023-03-23T13:55:21;9.40;;;6.20;;
29954;SDS011;68448;51.188;6.868;2023-03-23T13:57:52;7.73;;;5.37;;
29954;SDS011;68448;51.188;6.868;2023-03-23T14:00:27;7.20;;;5.10;;
29954;SDS011;68448;51.188;6.868;2023-03-23T14:03:00;6.10;;;4.20;;
29954;SDS011;68448;51.188;6.868;2023-03-23T14:05:36;5.60;;;4.40;;
29954;SDS011;68448;51.188;6.868;2023-03-23T14:08:09;4.73;;;2.40;;
29954;SDS011;68448;51.188;6.868;2023-03-23T14:10:36;2.60;;;1.70;;
29954;SDS011;68448;51.188;6.868;2023-03-23T14:13:05;3.50;;;1.90;;
29954;SDS011;68448;51.188;6.868;2023-03-23T14:15:40;4.40;;;1.33;;
29954;SDS011;68448;51.188;6.868;2023-03-23T14:18:06;2.67;;;1.57;;
29954;SDS011;68448;51.188;6.868;2023-03-23T14:20:33;3.33;;;2.37;;
29954;SDS011;68448;51.188;6.868;2023-03-23T14:23:00;7.30;;;2.07;;
29954;SDS011;68448;51.188;6.868;2023-03-23T14:25:26;3.07;;;2.10;;
29954;SDS011;68448;51.188;6.868;2023-03-23T14:27:53;3.40;;;2.33;;
29954;SDS011;68448;51.188;6.868;2023-03-23T14:30:21;1.97;;;1.60;;
29954;SDS011;68448;51.188;6.868;2023-03-23T14:32:48;6.33;;;3.03;;
29954;SDS011;68448;51.188;6.868;2023-03-23T14:35:16;10.37;;;2.07;;
29954;SDS011;68448;51.188;6.868;2023-03-23T14:37:43;3.83;;;2.37;;
29954;SDS011;68448;51.188;6.868;2023-03-23T14:40:10;7.27;;;2.60;;
29954;SDS011;68448;51.188;6.868;2023-03-23T14:42:38;5.23;;;2.30;;
29954;SDS011;68448;51.188;6.868;2023-03-23T14:45:05;3.17;;;2.27;;
29954;SDS011;68448;51.188;6.868;2023-03-23T14:47:33;2.87;;;1.97;;
29954;SDS011;68448;51.188;6.868;2023-03-23T14:50:00;7.30;;;2.70;;
29954;SDS011;68448;51.188;6.868;2023-03-23T14:52:27;3.90;;;2.27;;
29954;SDS011;68448;51.188;6.868;2023-03-23T14:54:54;5.90;;;2.67;;
29954;SDS011;68448;51.188;6.868;2023-03-23T14:57:25;6.23;;;2.83;;
29954;SDS011;68448;51.188;6.868;2023-03-23T14:59:52;4.57;;;2.50;;
29954;SDS011;68448;51.188;6.868;2023-03-23T15:02:24;5.33;;;2.80;;
29954;SDS011;68448;51.188;6.868;2023-03-23T15:04:53;3.93;;;2.60;;
29954;SDS011;68448;51.188;6.868;2023-03-23T15:07:20;4.87;;;3.20;;
29954;SDS011;68448;51.188;6.868;2023-03-23T15:09:47;7.10;;;2.90;;
29954;SDS011;68448;51.188;6.868;2023-03-23T15:12:19;5.03;;;2.90;;
29954;SDS011;68448;51.188;6.868;2023-03-23T15:14:46;7.73;;;3.17;;
29954;SDS011;68448;51.188;6.868;2023-03-23T15:17:17;11.17;;;3.00;;
29954;SDS011;68448;51.188;6.868;2023-03-23T15:19:44;8.17;;;3.07;;